createdAt,value
2019-01-03T00:02:18.382Z,54.74
2019-01-03T00:04:55.008Z,55.25
2019-01-03T00:07:24.776Z,55.01
2019-01-03T00:09:58.628Z,54.70
2019-01-03T00:12:45.938Z,55.29
2019-01-03T00:15:25.541Z,55.11
2019-01-03T00:17:57.272Z,55.16
2019-01-03T00:20:44.183Z,55.03
2019-01-03T00:23:31.584Z,54.80
2019-01-03T00:26:14.621Z,54.96
2019-01-03T00:28:51.648Z,54.99
2019-01-03T00:31:25.218Z,55.45
2019-01-03T00:34:12.343Z,55.17
2019-01-03T00:36:47.399Z,55.04
2019-01-03T00:39:22.164Z,55.52
2019-01-03T00:41:56.018Z,55.36
2019-01-03T00:44:25.276Z,55.33
2019-01-03T00:46:58.165Z,55.00
2019-01-03T00:49:32.064Z,55.34
2019-01-03T00:52:03.279Z,55.63
2019-01-03T00:54:49.441Z,55.29
2019-01-03T00:57:20.625Z,54.68
2019-01-03T01:00:09.497Z,55.30
2019-01-03T01:02:57.150Z,55.30
2019-01-03T01:05:43.375Z,55.72
2019-01-03T01:08:18.880Z,55.67
2019-01-03T01:11:08.055Z,55.13
2019-01-03T01:13:40.601Z,55.17
2019-01-03T01:16:29.833Z,55.08
2019-01-03T01:19:18.523Z,55.29
2019-01-03T01:22:05.627Z,55.36
2019-01-03T01:24:36.815Z,55.67
2019-01-03T01:27:19.731Z,55.78
2019-01-03T01:29:50.914Z,55.84
2019-01-03T01:32:27.944Z,55.39
2019-01-03T01:34:59.964Z,55.68
2019-01-03T01:37:33.506Z,56.18
2019-01-03T01:40:13.769Z,55.86
2019-01-03T01:42:47.681Z,56.05
2019-01-03T01:45:18.920Z,55.87
2019-01-03T01:47:54.102Z,55.72
2019-01-03T01:50:25.300Z,55.55
2019-01-03T01:52:59.553Z,55.69
2019-01-03T01:55:36.590Z,55.59
2019-01-03T01:58:08.565Z,55.94
2019-01-03T02:00:54.905Z,55.89
2019-01-03T02:03:26.104Z,56.11
2019-01-03T02:06:05.976Z,56.13
2019-01-03T02:08:46.617Z,56.16
2019-01-03T02:11:18.295Z,56.23
2019-01-03T02:14:01.813Z,56.08
2019-01-03T02:16:39.045Z,56.26
2019-01-03T02:19:12.656Z,56.75
2019-01-03T02:21:55.995Z,56.82
2019-01-03T02:24:36.471Z,56.66
2019-01-03T02:27:16.597Z,56.82
2019-01-03T02:30:03.945Z,57.00
2019-01-03T02:32:37.489Z,57.34
2019-01-03T02:35:08.671Z,57.88
2019-01-03T02:37:55.574Z,58.11
2019-01-03T02:40:32.367Z,58.28
2019-01-03T02:43:19.690Z,58.51
2019-01-03T02:45:56.390Z,58.19
2019-01-03T02:48:28.316Z,58.05
2019-01-03T02:51:10.786Z,58.05
2019-01-03T02:53:46.672Z,58.08
2019-01-03T02:56:33.462Z,58.47
2019-01-03T02:59:07.672Z,58.66
2019-01-03T03:01:50.322Z,58.90
2019-01-03T03:04:32.966Z,59.09
2019-01-03T03:07:07.267Z,59.78
2019-01-03T03:09:47.683Z,59.09
2019-01-03T03:12:19.231Z,59.55
2019-01-03T03:14:53.180Z,59.72
2019-01-03T03:17:33.578Z,60.46
2019-01-03T03:20:20.489Z,60.26
2019-01-03T03:22:54.596Z,60.13
2019-01-03T03:25:28.191Z,60.08
2019-01-03T03:27:59.718Z,60.25
2019-01-03T03:30:34.504Z,59.99
2019-01-03T03:33:11.633Z,60.08
2019-01-03T03:35:52.434Z,59.94
2019-01-03T03:38:26.268Z,59.92
2019-01-03T03:40:57.436Z,60.22
2019-01-03T03:43:34.745Z,60.59
2019-01-03T03:46:08.482Z,60.54
2019-01-03T03:48:54.646Z,60.40
2019-01-03T03:51:35.224Z,60.50
2019-01-03T03:54:22.135Z,60.79
2019-01-03T03:57:09.527Z,60.94
2019-01-03T03:59:40.665Z,60.97
2019-01-03T04:02:23.661Z,60.80
2019-01-03T04:05:10.822Z,60.86
2019-01-03T04:07:42.579Z,61.05
2019-01-03T04:10:11.857Z,60.78
2019-01-03T04:12:45.691Z,60.94
2019-01-03T04:15:21.206Z,60.66
2019-01-03T04:17:55.170Z,60.33
2019-01-03T04:20:41.033Z,59.79
2019-01-03T04:23:28.413Z,60.37
2019-01-03T04:26:05.541Z,60.22
2019-01-03T04:28:42.727Z,60.22
2019-01-03T04:31:17.948Z,60.21
2019-01-03T04:33:49.105Z,61.29
2019-01-03T04:36:35.313Z,61.55
2019-01-03T04:39:08.957Z,61.65
2019-01-03T04:41:40.165Z,61.68
2019-01-03T04:44:28.601Z,61.55
2019-01-03T04:47:02.523Z,61.56
2019-01-03T04:49:49.745Z,61.33
2019-01-03T04:52:23.546Z,61.49
2019-01-03T04:54:52.852Z,61.58
2019-01-03T04:57:24.533Z,62.39
2019-01-03T05:00:04.364Z,62.20
2019-01-03T05:02:35.661Z,61.98
2019-01-03T05:05:11.986Z,62.49
2019-01-03T05:07:48.634Z,62.99
2019-01-03T05:10:25.493Z,63.28
2019-01-03T05:13:13.011Z,63.66
2019-01-03T05:15:49.719Z,63.85
2019-01-03T05:18:33.082Z,63.60
2019-01-03T05:21:02.325Z,63.91
2019-01-03T05:23:33.616Z,64.21
2019-01-03T05:26:16.500Z,64.62
2019-01-03T05:28:57.735Z,64.12
2019-01-03T05:31:27.152Z,63.95
2019-01-03T05:33:58.300Z,63.97
2019-01-03T05:36:29.987Z,64.16
2019-01-03T05:39:05.513Z,64.05
2019-01-03T05:41:37.085Z,64.24
2019-01-03T05:44:06.404Z,64.39
2019-01-03T05:46:40.250Z,64.59
2019-01-03T05:49:27.447Z,64.64
2019-01-03T05:52:01.674Z,65.48
2019-01-03T05:54:32.886Z,65.65
2019-01-03T05:57:06.875Z,65.00
2019-01-03T05:59:38.411Z,65.55
2019-01-03T06:02:25.594Z,65.87
2019-01-03T06:05:14.848Z,66.04
2019-01-03T06:07:55.035Z,66.44
2019-01-03T06:10:29.331Z,66.82
2019-01-03T06:13:09.247Z,66.75
2019-01-03T06:15:43.493Z,66.06
2019-01-03T06:18:14.795Z,66.51
2019-01-03T06:21:02.191Z,66.24
2019-01-03T06:23:36.091Z,66.41
2019-01-03T06:26:23.355Z,66.46
2019-01-03T06:28:57.385Z,66.26
2019-01-03T06:31:45.032Z,66.85
2019-01-03T06:34:16.174Z,66.76
2019-01-03T06:36:47.341Z,67.41
2019-01-03T06:39:18.588Z,67.61
2019-01-03T06:41:53.802Z,68.02
2019-01-03T06:44:34.234Z,67.64
2019-01-03T06:47:03.502Z,67.25
2019-01-03T06:49:37.055Z,67.98
2019-01-03T06:52:08.849Z,67.22
2019-01-03T06:54:40.024Z,67.05
2019-01-03T06:57:13.906Z,66.70
2019-01-03T06:59:53.722Z,66.98
2019-01-03T07:02:27.630Z,67.26
2019-01-03T07:05:04.518Z,67.37
2019-01-03T07:07:47.787Z,66.75
2019-01-03T07:10:27.853Z,67.00
2019-01-03T07:13:09.098Z,67.29
2019-01-03T07:15:46.384Z,67.59
2019-01-03T07:18:35.372Z,67.27
2019-01-03T07:21:10.531Z,67.49
2019-01-03T07:23:42.332Z,68.07
2019-01-03T07:26:29.387Z,68.03
2019-01-03T07:29:16.728Z,68.71
2019-01-03T07:32:04.127Z,68.83
2019-01-03T07:34:41.280Z,68.62
2019-01-03T07:37:21.429Z,69.24
2019-01-03T07:39:52.846Z,69.01
2019-01-03T07:42:39.970Z,68.60
2019-01-03T07:45:26.914Z,68.53
2019-01-03T07:48:14.361Z,68.83
2019-01-03T07:50:49.250Z,68.96
2019-01-03T07:53:20.387Z,68.42
2019-01-03T07:55:54.633Z,68.09
2019-01-03T07:58:29.839Z,67.56
2019-01-03T08:01:00.990Z,67.79
2019-01-03T08:03:35.723Z,67.64
2019-01-03T08:06:06.923Z,68.04
2019-01-03T08:08:54.180Z,64.69
2019-01-03T08:11:23.998Z,59.92
2019-01-03T08:14:10.970Z,54.82
2019-01-03T08:16:46.148Z,52.40
2019-01-03T08:19:17.285Z,50.48
2019-01-03T08:22:04.440Z,46.95
2019-01-03T08:24:38.292Z,44.72
2019-01-03T08:27:09.991Z,41.81
2019-01-03T08:29:55.918Z,39.47
2019-01-03T08:32:29.523Z,38.00
2019-01-03T08:35:00.670Z,36.66
2019-01-03T08:37:46.796Z,37.25
2019-01-03T08:40:30.181Z,36.42
2019-01-03T08:43:13.239Z,33.53
2019-01-03T08:45:50.417Z,33.55
2019-01-03T08:48:21.631Z,35.36
2019-01-03T08:50:58.757Z,35.58
2019-01-03T08:53:45.937Z,33.98
2019-01-03T08:56:25.659Z,32.87
2019-01-03T08:58:59.967Z,31.47
2019-01-03T09:01:46.921Z,31.17
2019-01-03T09:04:34.379Z,30.41
2019-01-03T09:07:08.499Z,29.82
2019-01-03T09:09:45.421Z,30.88
2019-01-03T09:12:32.614Z,31.24
2019-01-03T09:15:20.040Z,30.77
2019-01-03T09:18:09.688Z,29.52
2019-01-03T09:20:59.660Z,28.87
2019-01-03T09:23:45.939Z,26.86
2019-01-03T09:26:23.205Z,25.46
2019-01-03T09:29:06.310Z,25.66
2019-01-03T09:31:54.018Z,25.56
2019-01-03T09:34:27.819Z,25.24
2019-01-03T09:37:01.428Z,24.84
2019-01-03T09:39:44.759Z,24.12
2019-01-03T09:42:32.310Z,23.33
2019-01-03T09:45:01.811Z,22.49
2019-01-03T09:47:31.381Z,21.90
2019-01-03T09:50:01.146Z,22.19
2019-01-03T09:52:30.659Z,21.46
2019-01-03T09:55:00.628Z,21.60
2019-01-03T09:57:30.154Z,21.54
2019-01-03T09:59:59.652Z,21.98
2019-01-03T10:02:29.471Z,21.53
2019-01-03T10:04:58.981Z,21.44
2019-01-03T10:07:28.470Z,20.38
2019-01-03T10:09:57.990Z,19.08
2019-01-03T10:12:27.953Z,18.77
2019-01-03T10:14:57.468Z,18.83
2019-01-03T10:17:26.972Z,19.90
2019-01-03T10:19:56.629Z,19.26
2019-01-03T10:22:26.151Z,19.38
2019-01-03T10:24:55.759Z,19.65
2019-01-03T10:27:25.571Z,19.58
2019-01-03T10:29:55.106Z,19.57
2019-01-03T10:32:24.611Z,19.47
2019-01-03T10:34:54.560Z,19.12
2019-01-03T10:37:24.202Z,20.19
2019-01-03T10:39:53.774Z,22.73
2019-01-03T10:42:23.842Z,26.77
2019-01-03T10:44:54.377Z,30.60
2019-01-03T10:47:23.886Z,34.73
2019-01-03T10:49:53.805Z,36.94
2019-01-03T10:52:23.306Z,38.85
2019-01-03T10:54:52.809Z,39.69
2019-01-03T10:57:22.438Z,38.76
2019-01-03T10:59:52.177Z,32.46
2019-01-03T11:02:21.707Z,28.24
2019-01-03T11:04:51.220Z,26.43
2019-01-03T11:07:20.828Z,25.67
2019-01-03T11:09:50.429Z,23.82
2019-01-03T11:12:19.976Z,22.01
2019-01-03T11:14:49.477Z,20.96
2019-01-03T11:17:18.980Z,21.29
2019-01-03T11:19:48.904Z,21.67
2019-01-03T11:22:18.423Z,21.57
2019-01-03T11:24:47.977Z,21.86
2019-01-03T11:27:17.517Z,20.58
2019-01-03T11:29:47.054Z,23.16
2019-01-03T11:32:16.914Z,24.14
2019-01-03T11:34:46.458Z,24.87
2019-01-03T11:37:15.984Z,25.11
2019-01-03T11:39:45.482Z,25.94
2019-01-03T11:42:15.166Z,27.69
2019-01-03T11:44:44.729Z,28.58
2019-01-03T11:47:14.413Z,28.39
2019-01-03T11:49:44.005Z,26.96
2019-01-03T11:52:13.514Z,28.28
2019-01-03T11:54:43.097Z,31.38
2019-01-03T11:57:12.657Z,34.84
2019-01-03T11:59:42.797Z,37.03
2019-01-03T12:02:12.377Z,38.97
2019-01-03T12:04:42.113Z,40.26
2019-01-03T12:07:11.706Z,40.72
2019-01-03T12:09:41.272Z,42.47
2019-01-03T12:12:10.807Z,42.68
2019-01-03T12:14:40.315Z,41.70
2019-01-03T12:17:09.829Z,40.77
2019-01-03T12:19:39.363Z,40.79
2019-01-03T12:22:28.284Z,41.80
2019-01-03T12:24:57.877Z,42.29
2019-01-03T12:27:27.398Z,42.16
2019-01-03T12:29:56.905Z,42.88
2019-01-03T12:32:26.477Z,43.03
2019-01-03T12:34:56.024Z,43.27
2019-01-03T12:37:25.520Z,43.91
2019-01-03T12:39:55.073Z,45.01
2019-01-03T12:42:24.612Z,45.17
2019-01-03T12:44:54.092Z,44.82
2019-01-03T12:47:23.928Z,45.65
2019-01-03T12:49:53.434Z,45.82
2019-01-03T12:52:22.943Z,46.06
2019-01-03T12:54:52.910Z,46.51
2019-01-03T12:57:22.439Z,47.52
2019-01-03T12:59:51.954Z,47.20
2019-01-03T13:02:21.496Z,47.26
2019-01-03T13:04:50.995Z,47.25
2019-01-03T13:07:20.498Z,47.78
2019-01-03T13:09:50.136Z,48.64
2019-01-03T13:12:19.727Z,49.05
2019-01-03T13:14:49.293Z,49.45
2019-01-03T13:17:18.833Z,49.93
2019-01-03T13:19:48.326Z,50.21
2019-01-03T13:22:17.816Z,50.78
2019-01-03T13:24:47.407Z,51.17
2019-01-03T13:27:16.918Z,50.82
2019-01-03T13:29:46.420Z,50.51
2019-01-03T13:32:16.512Z,50.63
2019-01-03T13:34:46.040Z,51.00
2019-01-03T13:37:15.544Z,51.14
2019-01-03T13:39:45.094Z,50.62
2019-01-03T13:42:14.665Z,49.98
2019-01-03T13:44:44.186Z,49.66
2019-01-03T13:47:13.743Z,49.89
2019-01-03T13:49:44.449Z,50.09
2019-01-03T13:52:14.467Z,51.03
2019-01-03T13:54:44.375Z,51.42
2019-01-03T13:57:13.873Z,51.43
2019-01-03T13:59:43.367Z,52.04
2019-01-03T14:02:12.949Z,51.70
2019-01-03T14:04:42.886Z,51.80
2019-01-03T14:07:12.392Z,52.89
2019-01-03T14:09:41.950Z,52.62
2019-01-03T14:12:11.453Z,52.39
2019-01-03T14:14:40.944Z,52.43
2019-01-03T14:17:10.888Z,52.61
2019-01-03T14:19:40.384Z,53.34
2019-01-03T14:22:09.912Z,53.42
2019-01-03T14:24:39.494Z,53.52
2019-01-03T14:27:08.995Z,53.23
2019-01-03T14:29:38.573Z,53.50
2019-01-03T14:32:08.838Z,53.64
2019-01-03T14:34:38.340Z,54.26
2019-01-03T14:37:07.816Z,55.38
2019-01-03T14:39:37.549Z,55.20
2019-01-03T14:42:07.109Z,55.29
2019-01-03T14:44:36.604Z,55.74
2019-01-03T14:47:06.188Z,55.67
2019-01-03T14:49:35.689Z,56.25
2019-01-03T14:52:05.319Z,56.86
2019-01-03T14:54:34.891Z,57.02
2019-01-03T14:57:04.440Z,56.80
2019-01-03T14:59:34.375Z,57.69
2019-01-03T15:02:04.022Z,57.69
2019-01-03T15:04:33.497Z,57.54
2019-01-03T15:07:03.007Z,57.88
2019-01-03T15:09:32.550Z,58.53
2019-01-03T15:12:02.054Z,58.42
2019-01-03T15:14:31.549Z,58.57
2019-01-03T15:17:01.094Z,58.72
2019-01-03T15:19:30.599Z,59.11
2019-01-03T15:22:00.103Z,59.07
2019-01-03T15:24:30.187Z,59.17
2019-01-03T15:26:59.686Z,58.74
2019-01-03T15:29:29.185Z,59.15
2019-01-03T15:31:58.759Z,59.59
2019-01-03T15:34:28.279Z,59.41
2019-01-03T15:36:57.784Z,59.53
2019-01-03T15:39:27.358Z,59.47
2019-01-03T15:41:56.849Z,59.84
2019-01-03T15:44:26.358Z,60.00
2019-01-03T15:46:56.026Z,61.05
2019-01-03T15:49:26.039Z,60.88
2019-01-03T15:51:55.555Z,60.97
2019-01-03T15:54:25.114Z,61.31
2019-01-03T15:56:54.642Z,61.76
2019-01-03T15:59:24.225Z,61.47
2019-01-03T16:01:53.778Z,61.19
2019-01-03T16:04:23.295Z,61.48
2019-01-03T16:06:52.780Z,62.47
2019-01-03T16:09:23.205Z,61.76
2019-01-03T16:11:53.215Z,61.97
2019-01-03T16:14:22.840Z,61.80
2019-01-03T16:16:52.383Z,62.20
2019-01-03T16:19:21.909Z,62.30
2019-01-03T16:21:51.425Z,62.26
2019-01-03T16:24:20.963Z,61.81
2019-01-03T16:26:50.470Z,62.11
2019-01-03T16:29:19.976Z,62.63
2019-01-03T16:31:50.123Z,62.38
2019-01-03T16:34:19.654Z,62.14
2019-01-03T16:36:49.208Z,62.28
2019-01-03T16:39:18.777Z,62.25
2019-01-03T16:41:48.315Z,62.37
2019-01-03T16:44:17.809Z,62.20
2019-01-03T16:46:47.400Z,62.03
2019-01-03T16:49:16.941Z,62.49
2019-01-03T16:51:46.435Z,62.32
2019-01-03T16:54:16.463Z,62.59
2019-01-03T16:56:46.006Z,62.56
2019-01-03T16:59:15.493Z,63.49
2019-01-03T17:01:45.045Z,62.90
2019-01-03T17:04:14.538Z,63.03
2019-01-03T17:06:44.126Z,63.31
2019-01-03T17:09:13.675Z,63.63
2019-01-03T17:11:43.180Z,63.90
2019-01-03T17:14:12.750Z,63.46
2019-01-03T17:16:42.883Z,63.65
2019-01-03T17:19:12.413Z,64.66
2019-01-03T17:21:41.976Z,64.40
2019-01-03T17:24:11.524Z,64.20
2019-01-03T17:26:43.755Z,64.46
2019-01-03T17:29:13.573Z,64.50
2019-01-03T17:31:43.114Z,64.31
2019-01-03T17:34:12.604Z,64.67
2019-01-03T17:36:42.171Z,65.22
2019-01-03T17:39:11.901Z,65.47
2019-01-03T17:41:41.440Z,65.27
2019-01-03T17:44:10.997Z,65.95
2019-01-03T17:46:40.578Z,66.19
2019-01-03T17:49:10.153Z,66.80
2019-01-03T17:51:39.666Z,66.98
2019-01-03T17:54:09.226Z,66.39
2019-01-03T17:56:39.943Z,66.69
2019-01-03T17:59:09.467Z,67.15
2019-01-03T18:01:39.458Z,67.31
2019-01-03T18:04:09.004Z,67.30
2019-01-03T18:06:38.536Z,67.95
2019-01-03T18:09:08.129Z,67.89
2019-01-03T18:11:37.669Z,67.93
2019-01-03T18:14:07.174Z,67.63
2019-01-03T18:16:36.725Z,67.92
2019-01-03T18:19:06.222Z,68.02
2019-01-03T18:21:36.388Z,68.77
2019-01-03T18:24:06.060Z,68.52
2019-01-03T18:26:35.543Z,68.73
2019-01-03T18:29:05.437Z,68.47
2019-01-03T18:31:34.949Z,68.35
2019-01-03T18:34:04.488Z,68.54
2019-01-03T18:36:34.016Z,68.50
2019-01-03T18:39:05.191Z,68.73
2019-01-03T18:41:34.684Z,69.92
2019-01-03T18:44:05.034Z,69.57
2019-01-03T18:46:34.939Z,69.19
2019-01-03T18:49:04.427Z,69.53
2019-01-03T18:51:33.953Z,69.89
2019-01-03T18:54:03.479Z,69.48
2019-01-03T18:56:32.967Z,69.37
2019-01-03T18:59:02.543Z,69.15
2019-01-03T19:01:32.439Z,68.94
2019-01-03T19:04:01.924Z,69.26
2019-01-03T19:06:31.432Z,68.83
2019-01-03T19:09:01.042Z,69.37
2019-01-03T19:11:30.528Z,68.98
2019-01-03T19:14:00.074Z,68.72
2019-01-03T19:16:29.626Z,69.28
2019-01-03T19:18:59.235Z,68.74
2019-01-03T19:21:28.701Z,68.99
2019-01-03T19:23:58.719Z,69.01
2019-01-03T19:26:28.216Z,69.34
2019-01-03T19:28:57.696Z,69.03
2019-01-03T19:31:27.687Z,69.54
2019-01-03T19:33:57.222Z,69.29
2019-01-03T19:36:26.746Z,69.05
2019-01-03T19:38:56.335Z,69.59
2019-01-03T19:41:25.920Z,69.55
2019-01-03T19:43:55.447Z,69.21
2019-01-03T19:46:24.979Z,68.79
2019-01-03T19:48:54.483Z,68.91
2019-01-03T19:51:24.050Z,69.42
2019-01-03T19:53:53.670Z,69.67
2019-01-03T19:56:23.238Z,69.70
2019-01-03T19:58:52.833Z,69.17
2019-01-03T20:01:22.510Z,69.01
2019-01-03T20:03:52.020Z,68.32
2019-01-03T20:06:21.560Z,68.28
2019-01-03T20:08:51.134Z,67.99
2019-01-03T20:11:20.700Z,68.19
2019-01-03T20:13:50.778Z,67.73
2019-01-03T20:16:20.470Z,67.97
2019-01-03T20:18:49.964Z,67.42
2019-01-03T20:21:21.029Z,67.98
2019-01-03T20:23:50.574Z,68.81
2019-01-03T20:26:21.778Z,68.28
2019-01-03T20:28:51.417Z,68.51
2019-01-03T20:31:21.188Z,68.43
2019-01-03T20:33:51.114Z,68.75
2019-01-03T20:36:20.628Z,67.97
2019-01-03T20:38:50.191Z,67.60
2019-01-03T20:41:19.737Z,68.10
2019-01-03T20:43:49.306Z,67.83
2019-01-03T20:46:18.861Z,67.87
2019-01-03T20:48:48.387Z,67.98
2019-01-03T20:51:17.928Z,67.95
2019-01-03T20:53:47.926Z,67.46
2019-01-03T20:56:17.420Z,68.07
2019-01-03T20:58:46.949Z,67.92
2019-01-03T21:01:16.564Z,66.92
2019-01-03T21:03:46.124Z,67.09
2019-01-03T21:06:15.646Z,66.50
2019-01-03T21:08:45.262Z,65.81
2019-01-03T21:11:14.794Z,66.79
2019-01-03T21:13:44.321Z,67.12
2019-01-03T21:16:14.019Z,66.04
2019-01-03T21:18:46.227Z,66.26
2019-01-03T21:21:14.751Z,66.28
2019-01-03T21:23:44.320Z,66.46
2019-01-03T21:26:13.845Z,66.28
2019-01-03T21:28:43.372Z,66.60
2019-01-03T21:31:12.979Z,66.28
2019-01-03T21:33:42.504Z,66.51
2019-01-03T21:36:12.028Z,66.31
2019-01-03T21:38:41.906Z,66.09
2019-01-03T21:41:11.995Z,66.63
2019-01-03T21:43:41.513Z,65.82
2019-01-03T21:46:11.087Z,66.16
2019-01-03T21:48:40.603Z,65.65
2019-01-03T21:51:10.200Z,65.96
2019-01-03T21:53:39.813Z,65.92
2019-01-03T21:56:09.360Z,65.85
2019-01-03T21:58:38.880Z,66.37
2019-01-03T22:01:08.618Z,65.94
2019-01-03T22:03:38.119Z,66.45
2019-01-03T22:06:07.649Z,66.31
2019-01-03T22:08:37.271Z,66.77
2019-01-03T22:11:06.765Z,66.86
2019-01-03T22:13:36.284Z,67.17
2019-01-03T22:16:05.863Z,66.73
2019-01-03T22:18:35.419Z,66.68
2019-01-03T22:21:04.910Z,66.43
2019-01-03T22:23:34.678Z,67.06
2019-01-03T22:26:04.207Z,67.46
2019-01-03T22:28:33.706Z,67.72
2019-01-03T22:31:03.300Z,68.41
2019-01-03T22:33:32.813Z,68.18
2019-01-03T22:36:02.302Z,67.57
2019-01-03T22:38:31.834Z,68.09
2019-01-03T22:41:01.360Z,68.21
2019-01-03T22:43:30.902Z,67.88
2019-01-03T22:46:00.554Z,67.23
2019-01-03T22:48:30.132Z,66.92
2019-01-03T22:50:59.648Z,66.67
2019-01-03T22:53:29.264Z,66.52
2019-01-03T22:55:59.216Z,66.20
2019-01-03T22:58:28.736Z,65.96
2019-01-03T23:00:58.710Z,65.77
2019-01-03T23:03:29.191Z,65.30
2019-01-03T23:05:58.731Z,65.51
2019-01-03T23:08:28.522Z,65.39
2019-01-03T23:10:58.029Z,65.25
2019-01-03T23:13:27.539Z,64.45
2019-01-03T23:15:57.050Z,64.69
2019-01-03T23:18:31.396Z,65.21
2019-01-03T23:20:57.831Z,65.26
2019-01-03T23:23:27.428Z,65.25
2019-01-03T23:25:57.358Z,65.53
2019-01-03T23:28:27.138Z,65.42
2019-01-03T23:30:56.915Z,65.07
2019-01-03T23:33:26.418Z,65.75
2019-01-03T23:35:55.926Z,65.89
2019-01-03T23:38:25.499Z,65.79
2019-01-03T23:40:55.005Z,66.18
2019-01-03T23:43:24.539Z,66.65
2019-01-03T23:45:54.043Z,67.51
2019-01-03T23:48:23.728Z,67.32
2019-01-03T23:50:53.220Z,67.98
2019-01-03T23:53:23.405Z,67.52
2019-01-03T23:55:56.025Z,67.40
2019-01-03T23:58:25.550Z,68.01
